createdAt,value
2018-09-11T00:02:12.645Z,3.20
2018-09-11T00:04:41.137Z,3.13
2018-09-11T00:07:09.660Z,3.20
2018-09-11T00:09:38.147Z,3.43
2018-09-11T00:12:06.680Z,3.40
2018-09-11T00:14:35.127Z,3.13
2018-09-11T00:17:03.698Z,3.07
2018-09-11T00:19:32.280Z,3.43
2018-09-11T00:22:00.814Z,3.50
2018-09-11T00:24:29.248Z,3.20
2018-09-11T00:26:57.731Z,3.33
2018-09-11T00:29:26.201Z,3.43
2018-09-11T00:31:54.767Z,3.60
2018-09-11T00:34:23.195Z,3.40
2018-09-11T00:36:51.674Z,3.40
2018-09-11T00:39:20.107Z,4.17
2018-09-11T00:41:48.635Z,3.27
2018-09-11T00:44:17.055Z,3.23
2018-09-11T00:46:45.591Z,3.13
2018-09-11T00:49:14.021Z,2.90
2018-09-11T00:51:42.554Z,3.20
2018-09-11T00:54:10.989Z,3.40
2018-09-11T00:56:39.462Z,3.53
2018-09-11T00:59:07.918Z,3.87
2018-09-11T01:01:36.355Z,3.33
2018-09-11T01:04:04.853Z,3.40
2018-09-11T01:06:33.303Z,3.20
2018-09-11T01:09:01.759Z,3.60
2018-09-11T01:11:30.211Z,3.67
2018-09-11T01:13:58.664Z,3.20
2018-09-11T01:16:27.148Z,3.17
2018-09-11T01:18:55.658Z,3.60
2018-09-11T01:21:24.212Z,3.17
2018-09-11T01:23:52.790Z,3.73
2018-09-11T01:26:21.253Z,3.93
2018-09-11T01:28:49.902Z,3.53
2018-09-11T01:31:18.357Z,3.67
2018-09-11T01:33:46.832Z,3.47
2018-09-11T01:36:15.313Z,3.57
2018-09-11T01:38:43.782Z,3.67
2018-09-11T01:41:12.262Z,3.90
2018-09-11T01:43:40.732Z,4.07
2018-09-11T01:46:09.402Z,3.63
2018-09-11T01:48:37.892Z,4.10
2018-09-11T01:51:06.675Z,3.77
2018-09-11T01:53:35.159Z,3.80
2018-09-11T01:56:03.895Z,3.70
2018-09-11T01:58:32.393Z,3.80
2018-09-11T02:01:00.838Z,3.50
2018-09-11T02:03:29.304Z,3.70
2018-09-11T02:05:57.753Z,3.50
2018-09-11T02:08:26.561Z,4.07
2018-09-11T02:10:55.042Z,3.93
2018-09-11T02:13:23.499Z,3.73
2018-09-11T02:15:51.977Z,4.10
2018-09-11T02:18:20.446Z,4.00
2018-09-11T02:20:48.949Z,3.97
2018-09-11T02:23:17.414Z,3.63
2018-09-11T02:25:45.898Z,4.10
2018-09-11T02:28:14.333Z,3.97
2018-09-11T02:30:42.797Z,4.07
2018-09-11T02:33:11.226Z,3.80
2018-09-11T02:35:39.746Z,4.37
2018-09-11T02:38:08.162Z,4.30
2018-09-11T02:40:36.632Z,3.57
2018-09-11T02:43:05.093Z,3.37
2018-09-11T02:45:33.577Z,3.87
2018-09-11T02:48:02.047Z,3.80
2018-09-11T02:50:30.506Z,3.37
2018-09-11T02:52:58.974Z,3.63
2018-09-11T02:55:27.560Z,4.10
2018-09-11T02:57:56.016Z,4.00
2018-09-11T03:00:24.459Z,3.87
2018-09-11T03:02:53.127Z,3.97
2018-09-11T03:05:21.574Z,3.50
2018-09-11T03:07:50.057Z,3.80
2018-09-11T03:10:18.494Z,3.90
2018-09-11T03:12:46.974Z,3.80
2018-09-11T03:15:15.423Z,4.20
2018-09-11T03:17:43.879Z,3.57
2018-09-11T03:20:12.354Z,4.17
2018-09-11T03:22:40.832Z,3.33
2018-09-11T03:25:09.411Z,3.57
2018-09-11T03:27:37.989Z,4.00
2018-09-11T03:30:07.365Z,3.50
2018-09-11T03:32:35.829Z,4.27
2018-09-11T03:35:04.418Z,4.33
2018-09-11T03:37:32.891Z,4.00
2018-09-11T03:40:01.345Z,4.40
2018-09-11T03:42:29.792Z,4.10
2018-09-11T03:44:58.263Z,4.70
2018-09-11T03:47:26.708Z,6.03
2018-09-11T03:49:55.206Z,6.70
2018-09-11T03:52:23.752Z,6.07
2018-09-11T03:54:52.217Z,6.33
2018-09-11T03:57:20.671Z,6.20
2018-09-11T03:59:49.199Z,5.27
2018-09-11T04:02:17.634Z,4.57
2018-09-11T04:04:46.102Z,4.70
2018-09-11T04:07:14.567Z,5.17
2018-09-11T04:09:43.131Z,4.53
2018-09-11T04:12:11.771Z,4.30
2018-09-11T04:14:40.352Z,5.20
2018-09-11T04:17:08.779Z,5.60
2018-09-11T04:19:37.258Z,6.00
2018-09-11T04:22:05.766Z,5.20
2018-09-11T04:24:34.197Z,5.70
2018-09-11T04:27:02.658Z,4.80
2018-09-11T04:29:31.107Z,5.57
2018-09-11T04:31:59.587Z,6.00
2018-09-11T04:34:28.040Z,5.40
2018-09-11T04:36:56.513Z,5.67
2018-09-11T04:39:24.943Z,4.97
2018-09-11T04:41:53.404Z,4.70
2018-09-11T04:44:21.867Z,5.10
2018-09-11T04:46:50.339Z,5.33
2018-09-11T04:49:18.785Z,5.53
2018-09-11T04:51:47.277Z,5.40
2018-09-11T04:54:15.710Z,5.20
2018-09-11T04:56:44.185Z,5.17
2018-09-11T04:59:12.618Z,4.93
2018-09-11T05:01:41.419Z,5.20
2018-09-11T05:04:09.991Z,5.57
2018-09-11T05:06:38.438Z,4.67
2018-09-11T05:09:09.004Z,5.00
2018-09-11T05:11:37.439Z,5.23
2018-09-11T05:14:05.976Z,4.67
2018-09-11T05:16:34.432Z,5.10
2018-09-11T05:19:02.931Z,4.27
2018-09-11T05:21:32.113Z,4.90
2018-09-11T05:24:00.556Z,4.07
2018-09-11T05:26:28.980Z,4.73
2018-09-11T05:28:57.452Z,4.83
2018-09-11T05:31:25.914Z,4.60
2018-09-11T05:33:54.446Z,4.03
2018-09-11T05:36:22.885Z,4.57
2018-09-11T05:38:51.426Z,4.20
2018-09-11T05:41:19.897Z,4.37
2018-09-11T05:43:48.439Z,4.73
2018-09-11T05:46:17.034Z,4.43
2018-09-11T05:48:45.798Z,5.50
2018-09-11T05:51:14.281Z,5.60
2018-09-11T05:53:42.743Z,4.90
2018-09-11T05:56:11.214Z,4.70
2018-09-11T05:58:39.650Z,5.03
2018-09-11T06:01:08.124Z,4.13
2018-09-11T06:03:36.595Z,4.30
2018-09-11T06:06:05.109Z,5.37
2018-09-11T06:08:33.543Z,4.90
2018-09-11T06:11:02.040Z,5.20
2018-09-11T06:13:30.501Z,4.90
2018-09-11T06:15:59.085Z,5.17
2018-09-11T06:18:27.734Z,5.03
2018-09-11T06:20:56.265Z,5.77
2018-09-11T06:23:24.736Z,5.30
2018-09-11T06:25:53.285Z,6.30
2018-09-11T06:28:21.695Z,5.80
2018-09-11T06:30:50.148Z,5.30
2018-09-11T06:33:18.692Z,5.17
2018-09-11T06:35:47.142Z,5.37
2018-09-11T06:38:16.334Z,4.83
2018-09-11T06:40:44.914Z,5.27
2018-09-11T06:43:13.455Z,6.00
2018-09-11T06:45:41.894Z,5.50
2018-09-11T06:48:10.394Z,5.40
2018-09-11T06:50:38.821Z,5.60
2018-09-11T06:53:07.407Z,5.73
2018-09-11T06:55:35.851Z,5.30
2018-09-11T06:58:04.355Z,5.33
2018-09-11T07:00:32.818Z,5.87
2018-09-11T07:03:01.283Z,4.90
2018-09-11T07:05:29.733Z,5.37
2018-09-11T07:07:58.199Z,5.27
2018-09-11T07:10:26.785Z,5.57
2018-09-11T07:12:55.259Z,5.70
2018-09-11T07:15:23.709Z,5.37
2018-09-11T07:17:52.169Z,5.33
2018-09-11T07:20:20.888Z,5.10
2018-09-11T07:22:49.174Z,6.27
2018-09-11T07:25:17.621Z,5.00
2018-09-11T07:27:46.103Z,5.90
2018-09-11T07:30:14.706Z,6.10
2018-09-11T07:32:43.159Z,5.20
2018-09-11T07:35:11.646Z,5.60
2018-09-11T07:37:40.133Z,5.20
2018-09-11T07:40:08.915Z,5.10
2018-09-11T07:42:37.375Z,5.13
2018-09-11T07:45:06.005Z,5.47
2018-09-11T07:47:34.499Z,5.70
2018-09-11T07:50:02.991Z,5.53
2018-09-11T07:52:31.531Z,6.50
2018-09-11T07:55:00.000Z,5.80
2018-09-11T07:57:28.697Z,4.87
2018-09-11T07:59:57.141Z,4.63
2018-09-11T08:02:25.579Z,5.47
2018-09-11T08:04:54.111Z,4.97
2018-09-11T08:07:22.555Z,4.63
2018-09-11T08:09:51.049Z,5.00
2018-09-11T08:12:19.492Z,4.90
2018-09-11T08:14:47.992Z,4.90
2018-09-11T08:17:16.433Z,4.93
2018-09-11T08:19:45.025Z,4.73
2018-09-11T08:22:13.380Z,4.33
2018-09-11T08:24:41.849Z,4.63
2018-09-11T08:27:10.300Z,4.00
2018-09-11T08:29:38.777Z,4.40
2018-09-11T08:32:07.228Z,3.83
2018-09-11T08:34:35.716Z,3.90
2018-09-11T08:37:04.184Z,4.57
2018-09-11T08:39:32.781Z,3.70
2018-09-11T08:42:01.260Z,3.47
2018-09-11T08:44:29.723Z,4.33
2018-09-11T08:46:58.150Z,3.40
2018-09-11T08:49:26.970Z,4.07
2018-09-11T08:51:55.402Z,3.63
2018-09-11T08:54:23.837Z,3.43
2018-09-11T08:56:52.289Z,3.57
2018-09-11T08:59:20.726Z,3.90
2018-09-11T09:01:49.307Z,3.50
2018-09-11T09:04:17.803Z,3.87
2018-09-11T09:06:46.306Z,3.90
2018-09-11T09:09:14.758Z,4.10
2018-09-11T09:11:43.245Z,4.20
2018-09-11T09:14:11.771Z,4.03
2018-09-11T09:16:40.289Z,4.77
2018-09-11T09:19:08.806Z,4.87
2018-09-11T09:21:37.291Z,4.03
2018-09-11T09:24:05.848Z,4.50
2018-09-11T09:26:34.303Z,5.63
2018-09-11T09:29:02.729Z,4.30
2018-09-11T09:31:31.228Z,4.70
2018-09-11T09:33:59.678Z,4.63
2018-09-11T09:36:28.278Z,4.20
2018-09-11T09:38:56.696Z,4.73
2018-09-11T09:41:25.163Z,4.40
2018-09-11T09:43:53.654Z,3.87
2018-09-11T09:46:22.076Z,3.40
2018-09-11T09:48:50.515Z,3.62
2018-09-11T09:51:19.013Z,3.72
2018-09-11T09:53:47.464Z,3.70
2018-09-11T09:56:15.935Z,3.90
2018-09-11T09:58:44.385Z,3.00
2018-09-11T10:01:18.246Z,3.37
2018-09-11T10:03:46.695Z,2.80
2018-09-11T10:06:15.159Z,3.22
2018-09-11T10:08:43.718Z,3.20
2018-09-11T10:11:12.213Z,2.50
2018-09-11T10:13:40.680Z,2.60
2018-09-11T10:16:09.161Z,2.60
2018-09-11T10:18:37.637Z,2.30
2018-09-11T10:21:06.481Z,2.50
2018-09-11T10:23:34.932Z,2.62
2018-09-11T10:26:03.394Z,2.55
2018-09-11T10:28:31.834Z,2.52
2018-09-11T10:31:00.378Z,2.98
2018-09-11T10:33:28.827Z,2.85
2018-09-11T10:35:57.397Z,2.90
2018-09-11T10:38:25.853Z,2.70
2018-09-11T10:40:54.415Z,2.37
2018-09-11T10:43:22.872Z,2.62
2018-09-11T10:45:51.343Z,2.30
2018-09-11T10:48:19.914Z,2.00
2018-09-11T10:50:48.447Z,2.22
2018-09-11T10:53:17.022Z,2.37
2018-09-11T10:55:45.490Z,2.02
2018-09-11T10:58:14.054Z,2.20
2018-09-11T11:00:42.537Z,1.75
2018-09-11T11:03:11.042Z,2.12
2018-09-11T11:05:39.665Z,1.98
2018-09-11T11:08:08.126Z,2.37
2018-09-11T11:10:36.635Z,2.02
2018-09-11T11:13:05.134Z,1.90
2018-09-11T11:15:33.586Z,2.15
2018-09-11T11:18:02.087Z,2.20
2018-09-11T11:20:30.674Z,1.87
2018-09-11T11:22:59.190Z,1.75
2018-09-11T11:25:27.629Z,1.92
2018-09-11T11:27:56.231Z,2.50
2018-09-11T11:30:24.698Z,1.92
2018-09-11T11:32:53.227Z,2.00
2018-09-11T11:35:21.662Z,2.20
2018-09-11T11:37:50.147Z,2.02
2018-09-11T11:40:18.610Z,2.62
2018-09-11T11:42:47.122Z,2.12
2018-09-11T11:45:15.559Z,2.30
2018-09-11T11:47:44.121Z,2.10
2018-09-11T11:50:12.573Z,2.52
2018-09-11T11:52:41.099Z,1.82
2018-09-11T11:55:09.674Z,1.95
2018-09-11T11:57:38.070Z,2.00
2018-09-11T12:00:06.616Z,1.70
2018-09-11T12:02:35.128Z,2.00
2018-09-11T12:05:03.623Z,2.17
2018-09-11T12:07:32.119Z,2.00
2018-09-11T12:10:00.561Z,1.92
2018-09-11T12:12:29.244Z,2.37
2018-09-11T12:14:57.787Z,1.77
2018-09-11T12:17:26.444Z,1.80
2018-09-11T12:19:54.943Z,1.62
2018-09-11T12:22:23.580Z,1.87
2018-09-11T12:24:52.038Z,1.60
2018-09-11T12:27:20.546Z,1.82
2018-09-11T12:29:49.030Z,1.85
2018-09-11T12:32:17.703Z,2.50
2018-09-11T12:34:46.154Z,2.00
2018-09-11T12:37:14.583Z,2.00
2018-09-11T12:39:43.058Z,2.20
2018-09-11T12:42:11.902Z,1.98
2018-09-11T12:44:40.377Z,2.17
2018-09-11T12:47:10.457Z,1.50
2018-09-11T12:49:39.082Z,1.77
2018-09-11T12:52:07.593Z,1.70
2018-09-11T12:54:36.912Z,2.12
2018-09-11T12:57:05.546Z,1.80
2018-09-11T12:59:34.050Z,2.00
2018-09-11T13:02:02.513Z,1.72
2018-09-11T13:04:30.980Z,2.17
2018-09-11T13:06:59.465Z,2.00
2018-09-11T13:09:27.920Z,1.90
2018-09-11T13:11:56.428Z,1.92
2018-09-11T13:14:24.883Z,1.80
2018-09-11T13:16:53.395Z,1.75
2018-09-11T13:19:21.907Z,1.87
2018-09-11T13:21:50.390Z,1.77
2018-09-11T13:24:18.850Z,2.10
2018-09-11T13:26:47.364Z,1.85
2018-09-11T13:29:16.408Z,1.77
2018-09-11T13:31:45.593Z,1.80
2018-09-11T13:34:14.471Z,1.92
2018-09-11T13:36:43.204Z,2.05
2018-09-11T13:39:11.844Z,1.92
2018-09-11T13:41:40.778Z,2.08
2018-09-11T13:44:09.712Z,1.67
2018-09-11T13:46:38.664Z,1.95
2018-09-11T13:49:07.125Z,1.85
2018-09-11T13:51:35.610Z,2.10
2018-09-11T13:54:04.101Z,2.30
2018-09-11T13:56:32.578Z,1.92
2018-09-11T13:59:01.031Z,2.00
2018-09-11T14:01:29.515Z,1.90
2018-09-11T14:03:57.959Z,1.92
2018-09-11T14:06:26.452Z,1.70
2018-09-11T14:08:54.894Z,1.90
2018-09-11T14:11:23.635Z,1.95
2018-09-11T14:13:52.092Z,1.67
2018-09-11T14:16:20.566Z,1.75
2018-09-11T14:18:49.073Z,2.22
2018-09-11T14:21:17.637Z,1.67
2018-09-11T14:23:46.117Z,2.08
2018-09-11T14:26:14.620Z,1.77
2018-09-11T14:28:43.067Z,1.80
2018-09-11T14:31:11.565Z,1.82
2018-09-11T14:33:40.042Z,1.90
2018-09-11T14:36:08.546Z,2.42
2018-09-11T14:38:37.085Z,1.72
2018-09-11T14:41:05.636Z,1.87
2018-09-11T14:43:34.075Z,1.80
2018-09-11T14:46:02.998Z,2.05
2018-09-11T14:48:31.446Z,1.82
2018-09-11T14:50:59.952Z,1.75
2018-09-11T14:53:28.413Z,2.12
2018-09-11T14:55:56.910Z,1.95
2018-09-11T14:58:25.368Z,2.00
2018-09-11T15:00:54.293Z,2.00
2018-09-11T15:03:22.774Z,2.22
2018-09-11T15:05:51.294Z,2.20
2018-09-11T15:08:19.836Z,2.35
2018-09-11T15:10:48.421Z,2.20
2018-09-11T15:13:16.874Z,2.00
2018-09-11T15:15:45.469Z,1.95
2018-09-11T15:18:14.014Z,2.45
2018-09-11T15:20:42.523Z,1.87
2018-09-11T15:23:12.177Z,2.00
2018-09-11T15:25:40.632Z,1.87
2018-09-11T15:28:09.267Z,2.25
2018-09-11T15:30:37.802Z,2.15
2018-09-11T15:33:06.655Z,2.02
2018-09-11T15:35:35.382Z,2.00
2018-09-11T15:38:04.147Z,1.90
2018-09-11T15:40:32.576Z,2.15
2018-09-11T15:43:01.068Z,1.95
2018-09-11T15:45:29.503Z,2.25
2018-09-11T15:47:57.982Z,2.08
2018-09-11T15:50:26.443Z,2.10
2018-09-11T15:52:54.941Z,2.12
2018-09-11T15:55:23.523Z,2.20
2018-09-11T15:57:51.996Z,2.12
2018-09-11T16:00:20.483Z,2.12
2018-09-11T16:02:48.978Z,1.98
2018-09-11T16:05:17.442Z,2.10
2018-09-11T16:07:45.911Z,2.02
2018-09-11T16:10:14.387Z,2.40
2018-09-11T16:12:42.866Z,2.67
2018-09-11T16:15:11.622Z,2.35
2018-09-11T16:17:40.308Z,2.25
2018-09-11T16:20:08.984Z,2.08
2018-09-11T16:22:37.859Z,2.15
2018-09-11T16:25:06.602Z,2.27
2018-09-11T16:27:35.057Z,2.30
2018-09-11T16:30:03.654Z,2.25
2018-09-11T16:32:32.057Z,2.33
2018-09-11T16:35:00.599Z,2.17
2018-09-11T16:37:29.078Z,2.40
2018-09-11T16:39:57.803Z,2.22
2018-09-11T16:42:26.290Z,1.80
2018-09-11T16:44:54.712Z,2.02
2018-09-11T16:47:23.197Z,1.90
2018-09-11T16:49:51.638Z,1.95
2018-09-11T16:52:20.251Z,2.15
2018-09-11T16:54:48.692Z,1.80
2018-09-11T16:57:17.155Z,2.22
2018-09-11T16:59:45.625Z,2.05
2018-09-11T17:02:14.178Z,2.65
2018-09-11T17:04:42.561Z,1.90
2018-09-11T17:07:10.989Z,2.35
2018-09-11T17:09:39.440Z,2.05
2018-09-11T17:12:07.884Z,2.10
2018-09-11T17:14:36.358Z,2.27
2018-09-11T17:17:04.824Z,2.30
2018-09-11T17:19:33.317Z,1.85
2018-09-11T17:22:01.820Z,2.30
2018-09-11T17:24:30.285Z,2.10
2018-09-11T17:26:58.736Z,2.22
2018-09-11T17:29:27.219Z,2.17
2018-09-11T17:31:55.888Z,2.40
2018-09-11T17:34:24.367Z,2.33
2018-09-11T17:36:52.813Z,2.55
2018-09-11T17:39:21.294Z,1.80
2018-09-11T17:41:51.155Z,2.50
2018-09-11T17:44:19.723Z,2.45
2018-09-11T17:46:48.158Z,1.77
2018-09-11T17:49:16.701Z,2.58
2018-09-11T17:51:45.067Z,3.10
2018-09-11T17:54:13.557Z,2.33
2018-09-11T17:56:41.994Z,2.43
2018-09-11T17:59:10.481Z,2.17
2018-09-11T18:01:38.922Z,2.40
2018-09-11T18:04:07.438Z,2.00
2018-09-11T18:06:35.879Z,2.50
2018-09-11T18:09:06.111Z,2.30
2018-09-11T18:11:34.950Z,2.20
2018-09-11T18:14:03.459Z,2.47
2018-09-11T18:16:31.914Z,2.60
2018-09-11T18:19:00.428Z,2.90
2018-09-11T18:21:29.705Z,2.90
2018-09-11T18:23:58.429Z,2.80
2018-09-11T18:26:26.947Z,3.10
2018-09-11T18:28:55.414Z,3.20
2018-09-11T18:31:23.859Z,3.00
2018-09-11T18:33:53.390Z,3.20
2018-09-11T18:36:21.829Z,2.97
2018-09-11T18:38:50.353Z,3.17
2018-09-11T18:41:19.203Z,2.83
2018-09-11T18:43:48.613Z,2.90
2018-09-11T18:46:17.049Z,3.13
2018-09-11T18:48:45.958Z,2.70
2018-09-11T18:51:17.601Z,2.30
2018-09-11T18:53:46.338Z,2.53
2018-09-11T18:56:14.776Z,2.90
2018-09-11T18:58:43.621Z,2.80
2018-09-11T19:01:12.258Z,2.80
2018-09-11T19:03:41.537Z,2.80
2018-09-11T19:06:09.994Z,2.37
2018-09-11T19:08:38.561Z,2.70
2018-09-11T19:11:07.332Z,2.87
2018-09-11T19:13:35.764Z,2.50
2018-09-11T19:16:04.282Z,2.87
2018-09-11T19:18:32.846Z,3.50
2018-09-11T19:21:01.315Z,2.63
2018-09-11T19:23:29.786Z,2.70
2018-09-11T19:25:58.226Z,2.70
2018-09-11T19:28:26.714Z,2.10
2018-09-11T19:30:55.145Z,3.00
2018-09-11T19:33:23.614Z,2.67
2018-09-11T19:35:52.059Z,2.53
2018-09-11T19:38:20.594Z,2.70
2018-09-11T19:40:49.057Z,2.33
2018-09-11T19:43:17.844Z,2.70
2018-09-11T19:45:46.715Z,2.70
2018-09-11T19:48:15.818Z,2.50
2018-09-11T19:50:44.262Z,2.90
2018-09-11T19:53:14.593Z,2.90
2018-09-11T19:55:43.303Z,2.80
2018-09-11T19:58:12.187Z,3.07
2018-09-11T20:00:41.245Z,2.93
2018-09-11T20:03:10.451Z,3.20
2018-09-11T20:05:38.926Z,3.40
2018-09-11T20:08:07.951Z,6.67
2018-09-11T20:10:36.426Z,5.67
2018-09-11T20:13:05.132Z,4.60
2018-09-11T20:15:33.622Z,4.17
2018-09-11T20:18:03.021Z,6.10
2018-09-11T20:20:31.532Z,6.73
2018-09-11T20:22:59.979Z,4.03
2018-09-11T20:25:28.492Z,4.90
2018-09-11T20:27:56.945Z,4.87
2018-09-11T20:30:25.422Z,3.93
2018-09-11T20:32:53.869Z,3.60
2018-09-11T20:35:22.366Z,3.27
2018-09-11T20:37:50.811Z,4.00
2018-09-11T20:40:20.308Z,3.43
2018-09-11T20:42:48.747Z,3.63
2018-09-11T20:45:17.266Z,2.87
2018-09-11T20:47:45.719Z,3.10
2018-09-11T20:50:14.197Z,3.40
2018-09-11T20:52:42.656Z,3.60
2018-09-11T20:55:11.142Z,3.03
2018-09-11T20:57:39.619Z,3.20
2018-09-11T21:00:08.218Z,2.53
2018-09-11T21:02:36.652Z,2.60
2018-09-11T21:05:05.178Z,2.27
2018-09-11T21:07:33.672Z,2.90
2018-09-11T21:10:02.116Z,2.60
2018-09-11T21:12:30.555Z,2.93
2018-09-11T21:14:58.985Z,2.83
2018-09-11T21:17:27.465Z,2.13
2018-09-11T21:19:55.951Z,2.27
2018-09-11T21:22:24.474Z,2.83
2018-09-11T21:24:52.935Z,2.70
2018-09-11T21:27:21.399Z,2.87
2018-09-11T21:29:49.838Z,2.60
2018-09-11T21:32:18.491Z,2.30
2018-09-11T21:34:46.919Z,2.43
2018-09-11T21:37:15.401Z,3.07
2018-09-11T21:39:43.839Z,2.50
2018-09-11T21:42:12.343Z,2.57
2018-09-11T21:44:40.867Z,2.93
2018-09-11T21:47:09.360Z,2.63
2018-09-11T21:49:37.897Z,3.00
2018-09-11T21:52:06.782Z,3.40
2018-09-11T21:54:35.185Z,2.97
2018-09-11T21:57:03.722Z,3.40
2018-09-11T21:59:32.265Z,2.83
2018-09-11T22:02:00.747Z,2.90
2018-09-11T22:04:29.225Z,3.00
2018-09-11T22:06:57.722Z,3.13
2018-09-11T22:09:26.214Z,3.13
2018-09-11T22:11:54.737Z,3.00
2018-09-11T22:14:23.177Z,3.10
2018-09-11T22:16:51.691Z,3.40
2018-09-11T22:19:20.248Z,3.20
2018-09-11T22:21:48.706Z,2.70
2018-09-11T22:24:17.233Z,3.33
2018-09-11T22:26:45.725Z,3.30
2018-09-11T22:29:14.196Z,3.57
2018-09-11T22:31:42.662Z,3.80
2018-09-11T22:34:11.120Z,3.47
2018-09-11T22:36:39.609Z,3.20
2018-09-11T22:39:08.733Z,2.93
2018-09-11T22:41:37.488Z,4.00
2018-09-11T22:44:05.995Z,2.83
2018-09-11T22:46:34.518Z,3.23
2018-09-11T22:49:02.957Z,2.97
2018-09-11T22:51:31.446Z,2.80
2018-09-11T22:53:59.883Z,2.90
2018-09-11T22:56:28.370Z,2.90
2018-09-11T22:58:56.871Z,3.00
2018-09-11T23:01:25.488Z,2.90
2018-09-11T23:03:53.930Z,3.07
2018-09-11T23:06:22.836Z,3.40
2018-09-11T23:08:51.304Z,3.30
2018-09-11T23:11:19.760Z,3.07
2018-09-11T23:13:48.260Z,3.60
2018-09-11T23:16:16.694Z,2.77
2018-09-11T23:18:45.249Z,2.80
2018-09-11T23:21:13.711Z,2.83
2018-09-11T23:23:42.202Z,2.90
2018-09-11T23:26:10.646Z,2.90
2018-09-11T23:28:39.203Z,2.90
2018-09-11T23:31:07.863Z,3.20
2018-09-11T23:33:36.366Z,3.27
2018-09-11T23:36:04.850Z,2.93
2018-09-11T23:38:33.380Z,3.00
2018-09-11T23:41:01.897Z,3.13
2018-09-11T23:43:30.402Z,3.50
2018-09-11T23:45:58.892Z,2.67
2018-09-11T23:48:27.381Z,3.13
2018-09-11T23:50:55.884Z,3.20
2018-09-11T23:53:24.378Z,3.10
2018-09-11T23:55:52.861Z,2.70
2018-09-11T23:58:21.372Z,3.53
